createdAt,value
2023-02-19T00:01:31.305Z,8.87
2023-02-19T00:04:02.785Z,8.66
2023-02-19T00:06:32.488Z,8.57
2023-02-19T00:09:00.360Z,10.59
2023-02-19T00:11:30.304Z,11.58
2023-02-19T00:13:59.751Z,12.26
2023-02-19T00:16:28.683Z,12.89
2023-02-19T00:18:57.751Z,12.49
2023-02-19T00:21:27.314Z,12.57
2023-02-19T00:23:58.537Z,11.22
2023-02-19T00:26:26.126Z,10.29
2023-02-19T00:28:55.852Z,9.97
2023-02-19T00:31:25.532Z,9.54
2023-02-19T00:33:55.406Z,8.74
2023-02-19T00:36:23.994Z,9.36
2023-02-19T00:38:53.191Z,8.97
2023-02-19T00:41:22.865Z,8.60
2023-02-19T00:43:52.376Z,9.10
2023-02-19T00:46:22.429Z,9.09
2023-02-19T00:48:50.251Z,8.99
2023-02-19T00:51:17.887Z,9.05
2023-02-19T00:53:45.754Z,8.83
2023-02-19T00:56:14.677Z,8.78
2023-02-19T00:58:42.589Z,8.98
2023-02-19T01:01:10.931Z,9.38
2023-02-19T01:03:39.346Z,9.02
2023-02-19T01:06:09.158Z,8.55
2023-02-19T01:08:37.284Z,8.67
2023-02-19T01:11:07.293Z,7.96
2023-02-19T01:13:36.499Z,7.91
2023-02-19T01:16:04.665Z,7.72
2023-02-19T01:18:33.135Z,7.88
2023-02-19T01:21:00.624Z,8.42
2023-02-19T01:23:28.136Z,8.47
2023-02-19T01:25:55.543Z,8.09
2023-02-19T01:28:23.332Z,8.12
2023-02-19T01:30:52.160Z,7.46
2023-02-19T01:33:19.721Z,6.98
2023-02-19T01:35:47.209Z,7.33
2023-02-19T01:38:14.695Z,7.45
2023-02-19T01:40:42.091Z,7.32
2023-02-19T01:43:16.802Z,7.55
2023-02-19T01:45:46.105Z,7.29
2023-02-19T01:48:18.330Z,7.27
2023-02-19T01:50:50.831Z,7.65
2023-02-19T01:53:23.023Z,7.41
2023-02-19T01:55:54.868Z,7.61
2023-02-19T01:58:23.612Z,7.59
2023-02-19T02:00:51.840Z,7.23
2023-02-19T02:03:21.649Z,6.65
2023-02-19T02:05:56.920Z,6.61
2023-02-19T02:08:42.936Z,6.91
2023-02-19T02:11:10.825Z,6.77
2023-02-19T02:13:40.314Z,7.03
2023-02-19T02:16:18.412Z,6.51
2023-02-19T02:19:00.168Z,6.50
2023-02-19T02:21:47.050Z,6.74
2023-02-19T02:24:36.793Z,6.61
2023-02-19T02:27:29.020Z,6.76
2023-02-19T02:30:11.571Z,7.31
2023-02-19T02:32:53.229Z,7.57
2023-02-19T02:35:24.385Z,6.47
2023-02-19T02:37:54.432Z,6.39
2023-02-19T02:40:21.962Z,6.53
2023-02-19T02:42:49.429Z,6.95
2023-02-19T02:45:36.034Z,6.75
2023-02-19T02:48:19.241Z,6.35
2023-02-19T02:50:51.341Z,6.16
2023-02-19T02:53:39.697Z,6.25
2023-02-19T02:56:07.876Z,6.34
2023-02-19T02:58:36.098Z,6.17
2023-02-19T03:01:27.242Z,6.00
2023-02-19T03:04:02.246Z,6.44
2023-02-19T03:06:32.773Z,6.41
2023-02-19T03:09:06.165Z,6.39
2023-02-19T03:11:54.592Z,6.32
2023-02-19T03:14:43.594Z,6.22
2023-02-19T03:17:36.935Z,6.08
2023-02-19T03:20:09.963Z,6.47
2023-02-19T03:22:39.355Z,6.34
2023-02-19T03:25:29.180Z,6.17
2023-02-19T03:27:59.313Z,6.42
2023-02-19T03:30:32.205Z,5.96
2023-02-19T03:33:03.262Z,5.48
2023-02-19T03:35:34.085Z,5.43
2023-02-19T03:38:07.687Z,5.44
2023-02-19T03:40:41.459Z,4.49
2023-02-19T03:43:18.843Z,4.87
2023-02-19T03:45:54.431Z,4.83
2023-02-19T03:48:35.345Z,4.50
2023-02-19T03:51:13.934Z,4.48
2023-02-19T03:53:50.515Z,4.46
2023-02-19T03:56:23.663Z,4.42
2023-02-19T03:58:57.422Z,4.49
2023-02-19T04:01:31.248Z,4.52
2023-02-19T04:04:09.048Z,4.67
2023-02-19T04:06:39.894Z,4.50
2023-02-19T04:09:10.142Z,4.53
2023-02-19T04:11:38.525Z,4.68
2023-02-19T04:14:10.066Z,5.02
2023-02-19T04:16:41.836Z,4.90
2023-02-19T04:19:14.075Z,4.67
2023-02-19T04:21:43.072Z,4.61
2023-02-19T04:24:15.268Z,4.47
2023-02-19T04:26:44.177Z,4.50
2023-02-19T04:29:11.884Z,4.15
2023-02-19T04:31:39.707Z,4.13
2023-02-19T04:34:07.244Z,4.34
2023-02-19T04:36:36.413Z,4.44
2023-02-19T04:39:03.873Z,4.42
2023-02-19T04:41:31.516Z,4.47
2023-02-19T04:43:58.945Z,4.71
2023-02-19T04:46:26.560Z,4.47
2023-02-19T04:48:53.975Z,4.38
2023-02-19T04:51:21.401Z,4.21
2023-02-19T04:53:50.196Z,4.32
2023-02-19T04:56:18.497Z,4.19
2023-02-19T04:58:46.404Z,4.35
2023-02-19T05:01:14.588Z,4.15
2023-02-19T05:03:42.237Z,3.96
2023-02-19T05:06:12.194Z,4.26
2023-02-19T05:08:40.087Z,4.42
2023-02-19T05:11:11.238Z,4.41
2023-02-19T05:13:40.296Z,4.22
2023-02-19T05:16:10.444Z,3.88
2023-02-19T05:18:37.956Z,3.96
2023-02-19T05:21:05.891Z,4.16
2023-02-19T05:23:33.480Z,4.33
2023-02-19T05:26:04.932Z,4.02
2023-02-19T05:28:33.776Z,4.10
2023-02-19T05:31:05.773Z,4.17
2023-02-19T05:33:33.690Z,4.30
2023-02-19T05:36:05.117Z,4.31
2023-02-19T05:38:32.581Z,4.34
2023-02-19T05:41:09.336Z,4.30
2023-02-19T05:43:38.630Z,4.36
2023-02-19T05:46:06.357Z,4.48
2023-02-19T05:48:33.923Z,4.58
2023-02-19T05:51:05.155Z,4.86
2023-02-19T05:53:33.136Z,4.72
2023-02-19T05:56:00.961Z,4.50
2023-02-19T05:58:28.713Z,4.55
2023-02-19T06:00:57.525Z,4.36
2023-02-19T06:03:24.965Z,5.08
2023-02-19T06:05:52.406Z,5.11
2023-02-19T06:08:19.833Z,5.75
2023-02-19T06:10:47.232Z,5.79
2023-02-19T06:13:16.271Z,5.85
2023-02-19T06:15:45.251Z,6.43
2023-02-19T06:18:14.016Z,6.78
2023-02-19T06:20:41.433Z,6.81
2023-02-19T06:23:08.844Z,6.38
2023-02-19T06:25:36.252Z,5.90
2023-02-19T06:28:03.733Z,6.37
2023-02-19T06:30:31.240Z,6.05
2023-02-19T06:32:58.747Z,6.12
2023-02-19T06:35:27.524Z,5.93
2023-02-19T06:37:54.956Z,5.78
2023-02-19T06:40:22.368Z,5.50
2023-02-19T06:42:49.775Z,5.60
2023-02-19T06:45:17.186Z,5.47
2023-02-19T06:47:44.610Z,5.07
2023-02-19T06:50:12.067Z,5.31
2023-02-19T06:52:40.806Z,6.00
2023-02-19T06:55:08.400Z,6.15
2023-02-19T06:57:35.808Z,6.33
2023-02-19T07:00:04.595Z,5.69
2023-02-19T07:02:32.095Z,5.94
2023-02-19T07:04:59.524Z,6.11
2023-02-19T07:07:27.048Z,6.20
2023-02-19T07:09:55.852Z,6.08
2023-02-19T07:12:23.263Z,6.09
2023-02-19T07:14:50.667Z,6.24
2023-02-19T07:17:18.145Z,6.16
2023-02-19T07:19:45.551Z,6.01
2023-02-19T07:22:12.992Z,6.13
2023-02-19T07:24:40.426Z,6.25
2023-02-19T07:27:09.186Z,5.39
2023-02-19T07:29:36.607Z,5.71
2023-02-19T07:32:04.432Z,6.19
2023-02-19T07:34:31.956Z,5.67
2023-02-19T07:36:59.520Z,6.08
2023-02-19T07:39:27.092Z,5.67
2023-02-19T07:41:54.655Z,5.41
2023-02-19T07:44:23.421Z,5.63
2023-02-19T07:46:50.827Z,5.58
2023-02-19T07:49:18.520Z,5.77
2023-02-19T07:51:45.968Z,5.58
2023-02-19T07:54:13.602Z,5.25
2023-02-19T07:56:41.166Z,5.43
2023-02-19T07:59:08.787Z,5.43
2023-02-19T08:01:55.207Z,5.33
2023-02-19T08:04:22.797Z,5.46
2023-02-19T08:06:50.254Z,5.48
2023-02-19T08:09:17.672Z,5.43
2023-02-19T08:12:02.738Z,5.38
2023-02-19T08:14:30.513Z,5.30
2023-02-19T08:16:59.351Z,5.64
2023-02-19T08:19:26.841Z,5.93
2023-02-19T08:21:54.499Z,5.31
2023-02-19T08:24:21.942Z,4.67
2023-02-19T08:26:49.477Z,4.94
2023-02-19T08:29:17.106Z,4.99
2023-02-19T08:31:44.851Z,4.93
2023-02-19T08:34:13.697Z,5.20
2023-02-19T08:36:41.196Z,4.85
2023-02-19T08:39:08.673Z,4.76
2023-02-19T08:41:36.143Z,5.21
2023-02-19T08:44:03.579Z,5.17
2023-02-19T08:46:33.019Z,5.25
2023-02-19T08:49:01.512Z,5.31
2023-02-19T08:51:30.332Z,5.13
2023-02-19T08:53:57.734Z,5.39
2023-02-19T08:56:25.358Z,5.27
2023-02-19T08:58:52.808Z,5.02
2023-02-19T09:01:20.246Z,5.09
2023-02-19T09:03:47.786Z,5.13
2023-02-19T09:06:17.710Z,5.18
2023-02-19T09:08:46.976Z,5.32
2023-02-19T09:11:15.226Z,4.96
2023-02-19T09:13:43.301Z,5.56
2023-02-19T09:16:11.138Z,5.79
2023-02-19T09:18:38.551Z,5.50
2023-02-19T09:21:07.400Z,5.58
2023-02-19T09:23:35.968Z,5.60
2023-02-19T09:26:08.567Z,5.36
2023-02-19T09:28:37.196Z,5.44
2023-02-19T09:31:05.985Z,5.77
2023-02-19T09:33:33.685Z,5.61
2023-02-19T09:36:01.262Z,5.30
2023-02-19T09:38:31.065Z,5.56
2023-02-19T09:41:00.134Z,5.24
2023-02-19T09:43:30.104Z,5.33
2023-02-19T09:46:04.122Z,5.40
2023-02-19T09:48:32.001Z,5.59
2023-02-19T09:51:01.691Z,5.61
2023-02-19T09:53:40.185Z,5.55
2023-02-19T09:56:08.742Z,5.66
2023-02-19T09:58:44.829Z,5.66
2023-02-19T10:01:13.755Z,5.80
2023-02-19T10:03:44.810Z,5.86
2023-02-19T10:06:19.042Z,5.93
2023-02-19T10:08:46.802Z,6.10
2023-02-19T10:11:15.591Z,6.37
2023-02-19T10:13:48.827Z,5.96
2023-02-19T10:16:20.262Z,5.81
2023-02-19T10:18:48.281Z,6.11
2023-02-19T10:21:19.990Z,5.99
2023-02-19T10:23:50.413Z,6.29
2023-02-19T10:26:18.116Z,5.84
2023-02-19T10:28:46.940Z,6.04
2023-02-19T10:31:20.539Z,5.97
2023-02-19T10:33:53.374Z,5.96
2023-02-19T10:36:33.161Z,5.91
2023-02-19T10:39:02.950Z,5.91
2023-02-19T10:41:31.678Z,5.96
2023-02-19T10:44:07.071Z,6.33
2023-02-19T10:46:38.114Z,6.55
2023-02-19T10:49:16.247Z,6.33
2023-02-19T10:51:43.824Z,6.63
2023-02-19T10:54:19.716Z,7.33
2023-02-19T10:56:47.639Z,7.24
2023-02-19T10:59:24.635Z,6.33
2023-02-19T11:01:57.380Z,6.46
2023-02-19T11:04:25.981Z,6.40
2023-02-19T11:06:53.716Z,6.04
2023-02-19T11:09:27.916Z,6.31
2023-02-19T11:11:57.406Z,6.20
2023-02-19T11:14:28.891Z,6.35
2023-02-19T11:16:58.192Z,6.69
2023-02-19T11:19:32.871Z,6.88
2023-02-19T11:22:02.248Z,6.37
2023-02-19T11:24:35.259Z,6.47
2023-02-19T11:27:05.458Z,6.30
2023-02-19T11:29:35.599Z,6.69
2023-02-19T11:32:26.116Z,6.58
2023-02-19T11:34:54.024Z,6.85
2023-02-19T11:37:22.496Z,6.54
2023-02-19T11:39:52.142Z,6.62
2023-02-19T11:42:31.092Z,6.28
2023-02-19T11:45:13.932Z,6.36
2023-02-19T11:48:26.037Z,6.25
2023-02-19T11:51:02.914Z,6.32
2023-02-19T11:53:33.363Z,6.30
2023-02-19T11:56:16.923Z,6.66
2023-02-19T11:59:00.942Z,6.84
2023-02-19T12:01:47.015Z,6.79
2023-02-19T12:04:32.697Z,6.77
2023-02-19T12:07:12.515Z,6.62
2023-02-19T12:09:54.358Z,6.60
2023-02-19T12:12:37.656Z,6.81
2023-02-19T12:15:25.802Z,6.77
2023-02-19T12:18:16.062Z,6.78
2023-02-19T12:20:52.250Z,6.92
2023-02-19T12:23:49.602Z,6.56
2023-02-19T12:26:24.885Z,6.31
2023-02-19T12:29:25.695Z,6.52
2023-02-19T12:32:09.895Z,6.46
2023-02-19T12:35:09.767Z,6.67
2023-02-19T12:37:45.428Z,6.71
2023-02-19T12:40:42.894Z,7.09
2023-02-19T12:43:18.751Z,7.03
2023-02-19T12:45:52.233Z,6.76
2023-02-19T12:48:27.726Z,6.74
2023-02-19T12:51:00.283Z,7.45
2023-02-19T12:53:38.759Z,7.48
2023-02-19T12:56:14.318Z,7.36
2023-02-19T12:58:46.771Z,7.12
2023-02-19T13:01:20.631Z,7.07
2023-02-19T13:03:55.036Z,7.31
2023-02-19T13:06:34.370Z,7.38
2023-02-19T13:09:07.482Z,7.34
2023-02-19T13:11:39.509Z,7.41
2023-02-19T13:14:15.117Z,6.96
2023-02-19T13:16:46.752Z,7.19
2023-02-19T13:19:15.150Z,7.33
2023-02-19T13:22:05.764Z,7.81
2023-02-19T13:24:37.507Z,7.26
2023-02-19T13:27:20.942Z,7.33
2023-02-19T13:30:05.492Z,8.06
2023-02-19T13:32:53.511Z,7.91
2023-02-19T13:35:38.039Z,7.68
2023-02-19T13:38:09.885Z,7.61
2023-02-19T13:40:40.160Z,7.27
2023-02-19T13:43:20.484Z,7.36
2023-02-19T13:45:48.076Z,7.05
2023-02-19T13:48:26.293Z,7.12
2023-02-19T13:51:47.669Z,7.17
2023-02-19T13:54:22.504Z,7.22
2023-02-19T13:56:50.488Z,7.11
2023-02-19T13:59:25.837Z,6.94
2023-02-19T14:02:27.395Z,6.95
2023-02-19T14:04:57.121Z,6.90
2023-02-19T14:07:54.455Z,6.88
2023-02-19T14:11:02.098Z,7.03
2023-02-19T14:13:56.370Z,6.90
2023-02-19T14:16:32.676Z,7.17
2023-02-19T14:19:00.129Z,7.10
2023-02-19T14:21:36.545Z,6.94
2023-02-19T14:24:06.440Z,7.20
2023-02-19T14:26:35.455Z,7.16
2023-02-19T14:29:03.877Z,7.39
2023-02-19T14:31:33.001Z,7.41
2023-02-19T14:34:03.517Z,7.30
2023-02-19T14:36:36.454Z,7.46
2023-02-19T14:39:11.511Z,7.38
2023-02-19T14:41:41.872Z,7.14
2023-02-19T14:44:17.810Z,7.13
2023-02-19T14:46:52.847Z,7.24
2023-02-19T14:49:28.450Z,7.06
2023-02-19T14:52:00.322Z,7.23
2023-02-19T14:54:41.057Z,7.12
2023-02-19T14:57:16.703Z,7.19
2023-02-19T14:59:54.431Z,7.16
2023-02-19T15:02:24.043Z,7.21
2023-02-19T15:04:51.495Z,7.09
2023-02-19T15:07:23.811Z,6.83
2023-02-19T15:09:57.046Z,7.06
2023-02-19T15:12:26.382Z,6.94
2023-02-19T15:14:57.880Z,7.01
2023-02-19T15:17:27.904Z,6.78
2023-02-19T15:19:56.524Z,6.88
2023-02-19T15:22:28.214Z,6.98
2023-02-19T15:24:57.023Z,6.80
2023-02-19T15:27:26.453Z,6.98
2023-02-19T15:29:53.974Z,7.19
2023-02-19T15:32:23.247Z,7.26
2023-02-19T15:34:57.730Z,7.61
2023-02-19T15:37:27.666Z,7.28
2023-02-19T15:39:57.731Z,7.10
2023-02-19T15:42:27.814Z,7.00
2023-02-19T15:44:59.903Z,6.75
2023-02-19T15:47:33.941Z,6.98
2023-02-19T15:50:08.529Z,7.29
2023-02-19T15:52:44.749Z,7.26
2023-02-19T15:55:29.044Z,7.12
2023-02-19T15:58:04.190Z,7.38
2023-02-19T16:00:37.093Z,7.09
2023-02-19T16:03:05.795Z,7.29
2023-02-19T16:05:39.301Z,7.50
2023-02-19T16:08:18.399Z,7.15
2023-02-19T16:10:58.608Z,7.00
2023-02-19T16:13:27.432Z,7.05
2023-02-19T16:16:01.732Z,7.44
2023-02-19T16:18:29.419Z,7.41
2023-02-19T16:20:57.305Z,7.42
2023-02-19T16:23:25.474Z,7.04
2023-02-19T16:26:01.614Z,7.31
2023-02-19T16:28:31.543Z,7.20
2023-02-19T16:31:00.160Z,7.39
2023-02-19T16:33:46.136Z,7.82
2023-02-19T16:36:23.380Z,7.59
2023-02-19T16:39:15.463Z,7.66
2023-02-19T16:42:12.605Z,7.77
2023-02-19T16:44:40.049Z,8.07
2023-02-19T16:47:16.336Z,8.10
2023-02-19T16:49:44.222Z,7.59
2023-02-19T16:52:15.246Z,7.74
2023-02-19T16:54:42.659Z,7.59
2023-02-19T16:57:11.487Z,8.09
2023-02-19T16:59:38.902Z,8.39
2023-02-19T17:02:09.013Z,7.87
2023-02-19T17:04:36.505Z,8.21
2023-02-19T17:07:04.150Z,8.10
2023-02-19T17:09:31.658Z,8.11
2023-02-19T17:11:59.126Z,8.05
2023-02-19T17:14:27.943Z,7.99
2023-02-19T17:16:55.401Z,7.89
2023-02-19T17:19:22.888Z,8.24
2023-02-19T17:21:50.424Z,8.25
2023-02-19T17:24:18.358Z,8.34
2023-02-19T17:26:45.851Z,8.13
2023-02-19T17:29:18.015Z,8.26
2023-02-19T17:31:46.918Z,8.16
2023-02-19T17:34:14.458Z,8.21
2023-02-19T17:36:43.150Z,8.10
2023-02-19T17:39:15.135Z,7.95
2023-02-19T17:41:44.048Z,7.65
2023-02-19T17:44:12.130Z,8.00
2023-02-19T17:46:40.124Z,8.12
2023-02-19T17:49:10.916Z,7.81
2023-02-19T17:51:38.337Z,8.04
2023-02-19T17:54:08.234Z,7.11
2023-02-19T17:56:35.844Z,7.82
2023-02-19T17:59:03.444Z,8.12
2023-02-19T18:01:30.907Z,8.01
2023-02-19T18:03:58.377Z,8.11
2023-02-19T18:06:27.154Z,8.06
2023-02-19T18:08:54.710Z,8.09
2023-02-19T18:11:24.117Z,8.34
2023-02-19T18:13:52.539Z,8.03
2023-02-19T18:16:20.633Z,8.32
2023-02-19T18:18:48.077Z,8.32
2023-02-19T18:21:15.818Z,8.05
2023-02-19T18:23:46.053Z,8.11
2023-02-19T18:26:13.737Z,8.15
2023-02-19T18:28:41.173Z,8.25
2023-02-19T18:31:09.179Z,7.62
2023-02-19T18:33:36.824Z,7.85
2023-02-19T18:36:04.880Z,7.03
2023-02-19T18:38:32.345Z,7.33
2023-02-19T18:41:01.085Z,7.94
2023-02-19T18:43:28.607Z,8.25
2023-02-19T18:45:56.080Z,7.96
2023-02-19T18:48:23.702Z,8.07
2023-02-19T18:50:51.118Z,7.95
2023-02-19T18:53:18.541Z,7.82
2023-02-19T18:55:45.971Z,7.24
2023-02-19T18:58:14.701Z,7.59
2023-02-19T19:00:42.091Z,7.70
2023-02-19T19:03:09.556Z,8.06
2023-02-19T19:05:37.011Z,7.60
2023-02-19T19:08:04.957Z,7.63
2023-02-19T19:10:32.337Z,7.99
2023-02-19T19:12:59.816Z,7.69
2023-02-19T19:15:28.686Z,7.54
2023-02-19T19:17:56.207Z,7.85
2023-02-19T19:20:24.726Z,7.50
2023-02-19T19:22:53.133Z,7.60
2023-02-19T19:25:21.363Z,7.77
2023-02-19T19:27:50.520Z,7.66
2023-02-19T19:30:19.976Z,7.97
2023-02-19T19:32:50.302Z,7.66
2023-02-19T19:35:17.989Z,7.34
2023-02-19T19:37:45.658Z,7.51
2023-02-19T19:40:13.993Z,7.89
2023-02-19T19:42:43.020Z,7.87
2023-02-19T19:45:12.047Z,7.64
2023-02-19T19:47:39.489Z,7.83
2023-02-19T19:50:08.979Z,7.84
2023-02-19T19:52:36.428Z,7.62
2023-02-19T19:55:04.055Z,7.76
2023-02-19T19:57:31.483Z,7.81
2023-02-19T19:59:58.932Z,7.74
2023-02-19T20:02:26.531Z,7.84
2023-02-19T20:04:53.951Z,7.97
2023-02-19T20:07:22.752Z,7.98
2023-02-19T20:09:50.575Z,7.69
2023-02-19T20:12:18.815Z,7.88
2023-02-19T20:14:47.322Z,7.58
2023-02-19T20:17:15.416Z,7.91
2023-02-19T20:19:42.943Z,7.68
2023-02-19T20:22:10.355Z,7.84
2023-02-19T20:24:39.245Z,7.56
2023-02-19T20:27:06.696Z,7.78
2023-02-19T20:29:35.391Z,7.10
2023-02-19T20:32:03.763Z,7.60
2023-02-19T20:34:31.805Z,7.29
2023-02-19T20:36:59.942Z,7.60
2023-02-19T20:39:29.201Z,7.42
2023-02-19T20:41:59.542Z,7.60
2023-02-19T20:44:27.192Z,7.35
2023-02-19T20:46:55.115Z,7.73
2023-02-19T20:49:25.037Z,7.67
2023-02-19T20:51:55.168Z,7.67
2023-02-19T20:54:26.534Z,7.44
2023-02-19T20:56:55.830Z,7.54
2023-02-19T20:59:27.171Z,7.59
2023-02-19T21:01:54.698Z,7.20
2023-02-19T21:04:22.251Z,7.08
2023-02-19T21:06:52.112Z,7.32
2023-02-19T21:09:19.588Z,7.40
2023-02-19T21:11:48.118Z,7.55
2023-02-19T21:14:16.348Z,7.51
2023-02-19T21:16:45.473Z,7.40
2023-02-19T21:19:12.880Z,6.98
2023-02-19T21:21:40.453Z,7.43
2023-02-19T21:24:08.311Z,7.04
2023-02-19T21:26:37.845Z,7.28
2023-02-19T21:29:06.198Z,6.21
2023-02-19T21:31:38.058Z,7.10
2023-02-19T21:34:07.493Z,7.30
2023-02-19T21:36:35.271Z,6.08
2023-02-19T21:39:03.127Z,6.87
2023-02-19T21:41:30.654Z,7.37
2023-02-19T21:43:58.794Z,9.20
2023-02-19T21:46:26.676Z,9.47
2023-02-19T21:48:55.819Z,9.41
2023-02-19T21:51:31.024Z,9.99
2023-02-19T21:53:58.782Z,10.53
2023-02-19T21:56:28.589Z,9.53
2023-02-19T21:58:56.319Z,8.49
2023-02-19T22:01:25.242Z,7.86
2023-02-19T22:03:52.787Z,7.05
2023-02-19T22:06:22.574Z,8.00
2023-02-19T22:08:51.618Z,7.44
2023-02-19T22:11:19.261Z,7.33
2023-02-19T22:13:47.070Z,7.47
2023-02-19T22:16:15.195Z,7.74
2023-02-19T22:18:47.357Z,7.42
2023-02-19T22:21:14.992Z,6.63
2023-02-19T22:23:46.278Z,7.09
2023-02-19T22:26:24.284Z,6.16
2023-02-19T22:28:52.380Z,7.02
2023-02-19T22:31:22.318Z,7.22
2023-02-19T22:33:50.116Z,6.77
2023-02-19T22:36:19.625Z,6.54
2023-02-19T22:38:47.563Z,7.07
2023-02-19T22:41:15.595Z,6.76
2023-02-19T22:43:44.773Z,7.16
2023-02-19T22:46:16.422Z,7.09
2023-02-19T22:48:44.037Z,7.34
2023-02-19T22:51:13.358Z,6.60
2023-02-19T22:53:45.545Z,7.05
2023-02-19T22:56:14.264Z,6.67
2023-02-19T22:58:42.353Z,6.63
2023-02-19T23:01:11.736Z,6.71
2023-02-19T23:03:46.530Z,6.73
2023-02-19T23:06:14.646Z,6.90
2023-02-19T23:08:43.219Z,7.13
2023-02-19T23:11:11.096Z,6.71
2023-02-19T23:13:38.676Z,7.05
2023-02-19T23:16:06.391Z,6.77
2023-02-19T23:18:35.257Z,6.99
2023-02-19T23:21:02.769Z,6.37
2023-02-19T23:23:30.298Z,6.75
2023-02-19T23:25:57.958Z,6.91
2023-02-19T23:28:25.535Z,6.69
2023-02-19T23:30:53.096Z,6.54
2023-02-19T23:33:20.635Z,6.79
2023-02-19T23:35:49.445Z,6.53
2023-02-19T23:38:16.906Z,6.48
2023-02-19T23:40:45.290Z,6.32
2023-02-19T23:43:12.777Z,6.55
2023-02-19T23:45:40.354Z,6.04
2023-02-19T23:48:08.188Z,6.08
2023-02-19T23:50:35.593Z,5.88
2023-02-19T23:53:04.739Z,5.91
2023-02-19T23:55:32.235Z,6.03
2023-02-19T23:57:59.812Z,5.96
